createdAt,value
2023-08-16T00:00:20.723Z,21.51
2023-08-16T00:03:00.794Z,21.49
2023-08-16T00:05:44.257Z,21.43
2023-08-16T00:08:24.629Z,21.41
2023-08-16T00:11:04.986Z,21.41
2023-08-16T00:13:45.341Z,21.40
2023-08-16T00:16:25.827Z,21.38
2023-08-16T00:19:06.052Z,21.32
2023-08-16T00:21:46.214Z,20.97
2023-08-16T00:24:26.528Z,20.96
2023-08-16T00:27:06.849Z,20.97
2023-08-16T00:29:49.787Z,20.94
2023-08-16T00:32:30.181Z,20.91
2023-08-16T00:35:10.741Z,20.85
2023-08-16T00:37:50.908Z,20.91
2023-08-16T00:40:30.879Z,20.93
2023-08-16T00:43:10.741Z,20.97
2023-08-16T00:45:51.385Z,20.87
2023-08-16T00:48:35.831Z,20.95
2023-08-16T00:51:15.966Z,20.93
2023-08-16T00:53:56.215Z,20.87
2023-08-16T00:56:36.916Z,20.76
2023-08-16T00:59:17.228Z,20.70
2023-08-16T01:01:57.808Z,20.71
2023-08-16T01:04:38.193Z,20.72
2023-08-16T01:07:18.280Z,20.63
2023-08-16T01:09:58.287Z,20.52
2023-08-16T01:12:47.539Z,20.53
2023-08-16T01:15:33.383Z,20.46
2023-08-16T01:18:14.441Z,20.45
2023-08-16T01:20:56.787Z,20.48
2023-08-16T01:24:12.765Z,20.50
2023-08-16T01:26:54.333Z,20.38
2023-08-16T01:29:35.896Z,20.40
2023-08-16T01:32:17.098Z,20.41
2023-08-16T01:34:57.127Z,20.38
2023-08-16T01:37:37.172Z,20.17
2023-08-16T01:40:19.440Z,20.23
2023-08-16T01:43:01.051Z,20.25
2023-08-16T01:45:41.321Z,20.25
2023-08-16T01:48:24.378Z,20.15
2023-08-16T01:51:04.984Z,20.01
2023-08-16T01:53:52.038Z,19.87
2023-08-16T01:56:32.101Z,19.94
2023-08-16T01:59:12.052Z,20.05
2023-08-16T02:01:52.124Z,20.03
2023-08-16T02:04:32.483Z,19.95
2023-08-16T02:07:12.960Z,19.96
2023-08-16T02:09:53.036Z,19.95
2023-08-16T02:12:34.390Z,19.88
2023-08-16T02:15:15.918Z,19.78
2023-08-16T02:17:56.338Z,19.82
2023-08-16T02:20:36.596Z,19.74
2023-08-16T02:23:16.611Z,19.70
2023-08-16T02:25:56.800Z,19.72
2023-08-16T02:28:37.182Z,19.83
2023-08-16T02:31:18.060Z,19.93
2023-08-16T02:33:58.563Z,19.98
2023-08-16T02:36:38.761Z,20.03
2023-08-16T02:39:18.747Z,20.04
2023-08-16T02:41:59.140Z,20.08
2023-08-16T02:44:39.517Z,20.13
2023-08-16T02:47:19.489Z,20.21
2023-08-16T02:49:59.854Z,20.27
2023-08-16T02:52:40.330Z,20.31
2023-08-16T02:55:20.469Z,20.33
2023-08-16T02:58:00.781Z,20.36
2023-08-16T03:00:41.023Z,20.33
2023-08-16T03:03:22.001Z,20.27
2023-08-16T03:06:02.349Z,20.22
2023-08-16T03:08:42.665Z,20.19
2023-08-16T03:11:23.078Z,20.07
2023-08-16T03:14:03.185Z,20.16
2023-08-16T03:16:43.727Z,20.18
2023-08-16T03:19:23.979Z,20.23
2023-08-16T03:22:04.260Z,20.13
2023-08-16T03:24:44.770Z,20.19
2023-08-16T03:27:24.870Z,20.29
2023-08-16T03:30:06.538Z,20.35
2023-08-16T03:32:46.873Z,20.39
2023-08-16T03:35:26.968Z,20.29
2023-08-16T03:38:06.973Z,20.19
2023-08-16T03:40:47.420Z,20.03
2023-08-16T03:43:30.133Z,20.10
2023-08-16T03:46:10.322Z,20.19
2023-08-16T03:48:50.806Z,20.23
2023-08-16T03:51:31.984Z,20.22
2023-08-16T03:54:12.425Z,20.16
2023-08-16T03:56:52.413Z,20.05
2023-08-16T03:59:32.472Z,20.23
2023-08-16T04:02:12.903Z,20.38
2023-08-16T04:04:56.934Z,20.49
2023-08-16T04:07:37.255Z,20.57
2023-08-16T04:10:17.290Z,20.55
2023-08-16T04:12:57.356Z,20.53
2023-08-16T04:15:37.262Z,20.43
2023-08-16T04:18:17.594Z,20.50
2023-08-16T04:20:58.140Z,20.51
2023-08-16T04:23:38.476Z,20.36
2023-08-16T04:26:18.729Z,20.29
2023-08-16T04:28:59.102Z,20.34
2023-08-16T04:31:39.200Z,20.42
2023-08-16T04:34:19.515Z,20.58
2023-08-16T04:36:59.505Z,20.52
2023-08-16T04:39:39.673Z,20.55
2023-08-16T04:42:20.254Z,20.59
2023-08-16T04:45:01.231Z,20.48
2023-08-16T04:47:41.533Z,20.61
2023-08-16T04:50:21.843Z,20.74
2023-08-16T04:53:02.435Z,20.90
2023-08-16T04:55:42.300Z,20.98
2023-08-16T04:58:22.325Z,21.01
2023-08-16T05:01:02.421Z,21.14
2023-08-16T05:03:51.211Z,21.23
2023-08-16T05:06:33.386Z,21.16
2023-08-16T05:09:13.721Z,20.98
2023-08-16T05:11:53.985Z,20.91
2023-08-16T05:14:34.233Z,20.86
2023-08-16T05:17:14.516Z,20.87
2023-08-16T05:19:54.441Z,20.91
2023-08-16T05:22:34.774Z,21.10
2023-08-16T05:25:15.278Z,21.26
2023-08-16T05:27:59.647Z,21.21
2023-08-16T05:30:39.960Z,21.14
2023-08-16T05:33:20.423Z,21.25
2023-08-16T05:36:00.639Z,21.43
2023-08-16T05:38:40.484Z,21.48
2023-08-16T05:41:20.875Z,21.39
2023-08-16T05:44:00.927Z,21.65
2023-08-16T05:46:41.344Z,21.68
2023-08-16T05:49:21.631Z,21.67
2023-08-16T05:52:02.038Z,21.86
2023-08-16T05:54:42.222Z,22.07
2023-08-16T05:57:22.574Z,22.39
2023-08-16T06:00:03.955Z,22.76
2023-08-16T06:02:44.172Z,22.83
2023-08-16T06:05:24.218Z,23.11
2023-08-16T06:08:05.641Z,23.42
2023-08-16T06:10:46.214Z,23.64
2023-08-16T06:13:26.527Z,23.83
2023-08-16T06:16:06.666Z,23.78
2023-08-16T06:18:46.635Z,23.85
2023-08-16T06:21:26.654Z,23.77
2023-08-16T06:24:07.556Z,23.88
2023-08-16T06:26:47.611Z,24.02
2023-08-16T06:29:27.916Z,24.19
2023-08-16T06:32:08.396Z,24.30
2023-08-16T06:34:48.636Z,24.09
2023-08-16T06:37:28.714Z,23.78
2023-08-16T06:40:10.454Z,23.65
2023-08-16T06:42:50.996Z,23.75
2023-08-16T06:45:31.264Z,23.86
2023-08-16T06:48:11.871Z,24.01
2023-08-16T06:50:51.843Z,24.31
2023-08-16T06:53:34.369Z,24.28
2023-08-16T06:56:14.692Z,24.33
2023-08-16T06:58:54.604Z,24.39
2023-08-16T07:01:35.012Z,24.21
2023-08-16T07:04:15.089Z,24.45
2023-08-16T07:06:55.062Z,24.57
2023-08-16T07:09:34.967Z,25.04
2023-08-16T07:12:15.682Z,24.83
2023-08-16T07:14:56.695Z,24.68
2023-08-16T07:17:36.570Z,24.92
2023-08-16T07:20:16.941Z,25.03
2023-08-16T07:22:59.627Z,25.30
2023-08-16T07:25:39.766Z,25.26
2023-08-16T07:28:20.050Z,25.60
2023-08-16T07:31:00.486Z,26.11
2023-08-16T07:33:41.854Z,26.72
2023-08-16T07:36:22.152Z,26.37
2023-08-16T07:39:02.226Z,26.00
2023-08-16T07:41:42.334Z,25.77
2023-08-16T07:44:22.418Z,25.49
2023-08-16T07:47:02.569Z,25.64
2023-08-16T07:49:43.352Z,25.52
2023-08-16T07:52:24.072Z,25.48
2023-08-16T07:55:04.980Z,25.45
2023-08-16T07:57:44.992Z,25.22
2023-08-16T08:00:25.451Z,25.40
2023-08-16T08:03:06.508Z,25.40
2023-08-16T08:05:46.831Z,25.45
2023-08-16T08:08:26.742Z,25.33
2023-08-16T08:11:08.276Z,25.41
2023-08-16T08:13:48.674Z,25.37
2023-08-16T08:16:28.799Z,25.33
2023-08-16T08:19:08.980Z,25.38
2023-08-16T08:21:49.539Z,25.57
2023-08-16T08:24:29.800Z,25.65
2023-08-16T08:27:10.106Z,25.99
2023-08-16T08:29:51.243Z,26.13
2023-08-16T08:32:31.495Z,26.36
2023-08-16T08:35:11.886Z,26.38
2023-08-16T08:37:52.407Z,26.41
2023-08-16T08:40:32.874Z,26.62
2023-08-16T08:43:18.439Z,26.93
2023-08-16T08:45:59.909Z,27.04
2023-08-16T08:48:42.924Z,27.06
2023-08-16T08:51:24.984Z,27.05
2023-08-16T08:54:05.958Z,27.09
2023-08-16T08:56:46.748Z,27.07
2023-08-16T08:59:29.779Z,27.15
2023-08-16T09:02:11.742Z,27.25
2023-08-16T09:04:53.877Z,27.35
2023-08-16T09:07:35.610Z,27.30
2023-08-16T09:10:17.765Z,27.17
2023-08-16T09:12:57.897Z,27.29
2023-08-16T09:15:38.626Z,27.36
2023-08-16T09:18:22.432Z,27.27
2023-08-16T09:21:04.469Z,27.69
2023-08-16T09:23:44.849Z,28.14
2023-08-16T09:26:25.285Z,28.39
2023-08-16T09:29:05.659Z,28.38
2023-08-16T09:31:47.868Z,28.70
2023-08-16T09:37:13.865Z,28.68
2023-08-16T09:39:58.295Z,28.83
2023-08-16T09:42:38.565Z,28.92
2023-08-16T09:45:55.306Z,29.01
2023-08-16T09:48:36.017Z,28.98
2023-08-16T09:51:16.497Z,28.96
2023-08-16T09:53:57.952Z,28.85
2023-08-16T09:56:38.904Z,28.77
2023-08-16T10:07:30.827Z,28.11
2023-08-16T10:10:11.586Z,27.96
2023-08-16T10:12:52.863Z,27.90
2023-08-16T10:15:34.931Z,27.96
2023-08-16T10:18:18.132Z,28.06
2023-08-16T10:21:01.108Z,28.13
2023-08-16T10:23:42.464Z,28.27
2023-08-16T10:26:24.691Z,28.40
2023-08-16T10:31:56.037Z,28.94
2023-08-16T10:34:37.219Z,28.98
2023-08-16T10:37:18.740Z,29.25
2023-08-16T10:40:12.098Z,29.32
2023-08-16T10:43:01.116Z,29.81
2023-08-16T10:45:54.369Z,29.99
2023-08-16T10:48:38.159Z,29.85
2023-08-16T10:51:18.662Z,29.87
2023-08-16T10:53:59.376Z,29.64
2023-08-16T10:56:48.693Z,29.44
2023-08-16T10:59:40.418Z,29.19
2023-08-16T11:02:31.867Z,29.10
2023-08-16T11:05:17.591Z,28.95
2023-08-16T11:08:00.864Z,29.22
2023-08-16T11:10:42.426Z,29.24
2023-08-16T11:13:22.528Z,29.59
2023-08-16T11:16:02.805Z,30.04
2023-08-16T11:18:44.037Z,30.38
2023-08-16T11:21:26.940Z,30.66
2023-08-16T11:24:10.728Z,30.84
2023-08-16T11:26:50.713Z,30.93
2023-08-16T11:29:30.774Z,30.85
2023-08-16T11:32:10.935Z,31.16
2023-08-16T11:34:51.555Z,30.98
2023-08-16T11:37:31.850Z,31.06
2023-08-16T11:40:12.095Z,30.93
2023-08-16T11:42:52.413Z,31.26
2023-08-16T11:45:32.626Z,31.50
2023-08-16T11:48:14.374Z,31.32
2023-08-16T11:50:54.282Z,31.67
2023-08-16T11:53:36.164Z,32.34
2023-08-16T11:56:16.198Z,32.87
2023-08-16T11:58:57.250Z,32.79
2023-08-16T12:01:40.940Z,33.43
2023-08-16T12:04:25.623Z,33.68
2023-08-16T12:07:10.931Z,33.54
2023-08-16T12:09:51.108Z,33.85
2023-08-16T12:12:34.723Z,34.37
2023-08-16T12:15:15.132Z,35.50
2023-08-16T12:17:56.529Z,36.35
2023-08-16T12:20:37.316Z,36.82
2023-08-16T12:23:18.534Z,37.76
2023-08-16T12:25:59.137Z,38.48
2023-08-16T12:28:39.798Z,38.71
2023-08-16T12:31:19.946Z,39.00
2023-08-16T12:34:00.495Z,39.68
2023-08-16T12:36:40.518Z,38.34
2023-08-16T12:39:20.825Z,38.41
2023-08-16T12:44:45.900Z,36.95
2023-08-16T12:47:26.551Z,37.13
2023-08-16T12:50:08.139Z,36.48
2023-08-16T12:52:48.134Z,36.12
2023-08-16T12:55:29.327Z,35.87
2023-08-16T12:58:21.497Z,35.40
2023-08-16T13:04:00.410Z,34.76
2023-08-16T13:06:52.546Z,34.30
2023-08-16T13:09:48.159Z,35.16
2023-08-16T13:12:33.394Z,35.23
2023-08-16T13:15:26.197Z,34.69
2023-08-16T13:20:58.949Z,35.97
2023-08-16T13:23:52.050Z,35.66
2023-08-16T13:27:00.092Z,36.40
2023-08-16T13:35:11.541Z,39.10
2023-08-16T13:37:58.363Z,39.93
2023-08-16T13:40:52.286Z,40.38
2023-08-16T13:43:43.680Z,41.86
2023-08-16T13:46:24.494Z,43.05
2023-08-16T13:49:04.904Z,42.80
2023-08-16T13:51:45.215Z,43.27
2023-08-16T13:54:25.478Z,42.87
2023-08-16T13:57:05.582Z,44.11
2023-08-16T13:59:46.572Z,43.86
2023-08-16T14:02:27.006Z,44.25
2023-08-16T14:05:07.804Z,44.01
2023-08-16T14:07:48.121Z,43.14
2023-08-16T14:10:28.304Z,43.94
2023-08-16T14:13:08.425Z,43.94
2023-08-16T14:15:53.308Z,44.43
2023-08-16T14:18:33.445Z,44.01
2023-08-16T14:21:13.901Z,44.50
2023-08-16T14:23:56.125Z,44.85
2023-08-16T14:26:36.537Z,44.71
2023-08-16T14:29:16.714Z,43.16
2023-08-16T14:31:56.790Z,42.17
2023-08-16T14:34:37.046Z,41.75
2023-08-16T14:37:17.296Z,40.60
2023-08-16T14:39:57.683Z,40.16
2023-08-16T14:42:38.302Z,39.16
2023-08-16T14:45:18.460Z,39.26
2023-08-16T14:47:58.960Z,39.52
2023-08-16T14:50:38.996Z,38.68
2023-08-16T14:53:18.862Z,38.10
2023-08-16T14:55:59.146Z,38.01
2023-08-16T14:58:42.765Z,38.51
2023-08-16T15:01:22.883Z,38.34
2023-08-16T15:04:03.009Z,38.02
2023-08-16T15:06:43.001Z,37.52
2023-08-16T15:09:22.988Z,37.10
2023-08-16T15:12:03.713Z,37.05
2023-08-16T15:14:43.666Z,36.99
2023-08-16T15:17:23.976Z,37.14
2023-08-16T15:20:06.209Z,36.98
2023-08-16T15:22:46.225Z,36.88
2023-08-16T15:25:26.548Z,36.62
2023-08-16T15:28:06.696Z,36.70
2023-08-16T15:30:53.424Z,36.57
2023-08-16T15:33:34.541Z,37.01
2023-08-16T15:36:14.856Z,37.00
2023-08-16T15:38:54.997Z,36.61
2023-08-16T15:41:35.548Z,36.37
2023-08-16T15:44:15.711Z,36.53
2023-08-16T15:46:56.183Z,37.61
2023-08-16T15:49:36.313Z,37.14
2023-08-16T15:52:16.539Z,36.81
2023-08-16T15:54:57.657Z,36.25
2023-08-16T15:57:37.590Z,36.08
2023-08-16T16:00:18.373Z,36.42
2023-08-16T16:02:58.781Z,36.62
2023-08-16T16:05:39.093Z,36.90
2023-08-16T16:08:19.811Z,37.33
2023-08-16T16:11:00.344Z,37.19
2023-08-16T16:13:40.339Z,37.03
2023-08-16T16:16:20.727Z,36.72
2023-08-16T16:19:00.900Z,36.35
2023-08-16T16:21:41.461Z,36.60
2023-08-16T16:24:22.011Z,35.96
2023-08-16T16:27:02.391Z,35.18
2023-08-16T16:29:42.360Z,35.21
2023-08-16T16:32:22.633Z,35.07
2023-08-16T16:35:03.523Z,34.69
2023-08-16T16:37:43.982Z,34.53
2023-08-16T16:40:24.317Z,33.95
2023-08-16T16:43:04.644Z,33.84
2023-08-16T16:45:44.612Z,33.60
2023-08-16T16:48:25.127Z,33.25
2023-08-16T16:51:05.454Z,32.96
2023-08-16T16:53:45.475Z,32.87
2023-08-16T16:56:25.751Z,32.95
2023-08-16T16:59:06.147Z,32.67
2023-08-16T17:01:46.531Z,32.36
2023-08-16T17:04:26.852Z,32.18
2023-08-16T17:07:09.127Z,32.10
2023-08-16T17:09:49.429Z,31.80
2023-08-16T17:12:29.411Z,31.52
2023-08-16T17:15:10.371Z,31.22
2023-08-16T17:17:50.334Z,31.01
2023-08-16T17:20:30.332Z,30.56
2023-08-16T17:23:10.580Z,30.46
2023-08-16T17:25:52.387Z,30.15
2023-08-16T17:28:32.577Z,30.04
2023-08-16T17:31:13.579Z,29.97
2023-08-16T17:33:54.950Z,29.95
2023-08-16T17:36:35.207Z,29.79
2023-08-16T17:39:15.194Z,29.77
2023-08-16T17:41:55.391Z,29.79
2023-08-16T17:44:35.527Z,29.56
2023-08-16T17:47:15.705Z,29.63
2023-08-16T17:49:55.702Z,29.59
2023-08-16T17:52:36.060Z,29.23
2023-08-16T17:55:16.114Z,29.03
2023-08-16T17:57:56.424Z,28.82
2023-08-16T18:00:37.686Z,28.61
2023-08-16T18:03:18.127Z,28.67
2023-08-16T18:05:58.799Z,28.66
2023-08-16T18:08:39.482Z,28.67
2023-08-16T18:11:19.767Z,28.63
2023-08-16T18:13:59.996Z,28.69
2023-08-16T18:16:40.909Z,28.71
2023-08-16T18:19:20.992Z,28.68
2023-08-16T18:22:00.966Z,28.71
2023-08-16T18:24:41.339Z,28.67
2023-08-16T18:27:21.632Z,28.63
2023-08-16T18:30:01.498Z,28.64
2023-08-16T18:32:42.310Z,28.58
2023-08-16T18:35:22.803Z,28.55
2023-08-16T18:38:03.473Z,28.49
2023-08-16T18:40:43.634Z,28.37
2023-08-16T18:43:23.654Z,28.31
2023-08-16T18:46:03.738Z,28.19
2023-08-16T18:48:44.170Z,28.19
2023-08-16T18:51:24.284Z,28.22
2023-08-16T18:54:04.923Z,28.09
2023-08-16T18:56:44.940Z,27.99
2023-08-16T18:59:26.384Z,27.88
2023-08-16T19:02:08.274Z,27.86
2023-08-16T19:04:48.453Z,27.69
2023-08-16T19:07:28.722Z,27.48
2023-08-16T19:10:09.331Z,27.43
2023-08-16T19:12:49.651Z,27.21
2023-08-16T19:15:29.957Z,27.12
2023-08-16T19:18:12.952Z,27.17
2023-08-16T19:20:57.413Z,27.04
2023-08-16T19:23:37.643Z,27.00
2023-08-16T19:26:17.784Z,26.92
2023-08-16T19:28:58.073Z,26.87
2023-08-16T19:31:39.049Z,26.78
2023-08-16T19:34:19.957Z,26.49
2023-08-16T19:37:00.150Z,26.44
2023-08-16T19:39:40.120Z,26.41
2023-08-16T19:42:20.350Z,26.44
2023-08-16T19:45:01.085Z,26.41
2023-08-16T19:47:41.544Z,26.37
2023-08-16T19:50:23.722Z,26.36
2023-08-16T19:53:03.854Z,26.18
2023-08-16T19:55:43.812Z,26.12
2023-08-16T19:58:24.673Z,26.09
2023-08-16T20:01:04.769Z,26.08
2023-08-16T20:03:44.718Z,26.09
2023-08-16T20:06:25.797Z,26.08
2023-08-16T20:09:06.417Z,26.01
2023-08-16T20:11:46.643Z,25.92
2023-08-16T20:14:26.865Z,25.72
2023-08-16T20:17:06.884Z,25.51
2023-08-16T20:19:46.845Z,25.29
2023-08-16T20:22:27.204Z,25.25
2023-08-16T20:25:07.700Z,25.17
2023-08-16T20:27:48.283Z,25.26
2023-08-16T20:30:28.701Z,25.38
2023-08-16T20:33:09.539Z,25.48
2023-08-16T20:35:49.795Z,25.51
2023-08-16T20:38:29.996Z,25.53
2023-08-16T20:41:10.050Z,25.46
2023-08-16T20:43:50.250Z,25.46
2023-08-16T20:46:38.091Z,25.53
2023-08-16T20:49:18.588Z,25.52
2023-08-16T20:51:58.919Z,25.52
2023-08-16T20:54:38.992Z,25.61
2023-08-16T20:57:19.720Z,25.58
2023-08-16T21:00:00.005Z,25.60
2023-08-16T21:02:40.395Z,25.62
2023-08-16T21:05:20.827Z,25.59
2023-08-16T21:08:01.129Z,25.59
2023-08-16T21:10:41.392Z,25.64
2023-08-16T21:13:21.809Z,25.59
2023-08-16T21:16:01.947Z,25.55
2023-08-16T21:18:41.761Z,25.53
2023-08-16T21:21:21.754Z,25.20
2023-08-16T21:24:01.730Z,24.89
2023-08-16T21:26:43.086Z,23.93
2023-08-16T21:29:23.286Z,22.98
2023-08-16T21:32:03.452Z,22.03
2023-08-16T21:34:43.853Z,21.52
2023-08-16T21:37:24.436Z,21.14
2023-08-16T21:40:05.590Z,21.26
2023-08-16T21:42:45.961Z,21.70
2023-08-16T21:45:26.232Z,21.99
2023-08-16T21:48:07.173Z,22.05
2023-08-16T21:50:47.357Z,22.21
2023-08-16T21:53:27.495Z,22.29
2023-08-16T21:56:08.073Z,22.50
2023-08-16T21:58:48.184Z,22.47
2023-08-16T22:01:28.119Z,22.32
2023-08-16T22:04:09.323Z,21.72
2023-08-16T22:06:49.458Z,21.38
2023-08-16T22:09:30.093Z,20.94
2023-08-16T22:12:10.637Z,20.89
2023-08-16T22:14:51.006Z,20.77
2023-08-16T22:17:31.139Z,20.56
2023-08-16T22:20:12.600Z,20.72
2023-08-16T22:22:52.729Z,20.63
2023-08-16T22:25:32.887Z,20.61
2023-08-16T22:28:12.879Z,20.73
2023-08-16T22:30:53.174Z,20.75
2023-08-16T22:33:33.228Z,20.99
2023-08-16T22:36:13.249Z,21.24
2023-08-16T22:38:53.425Z,21.35
2023-08-16T22:41:33.441Z,21.32
2023-08-16T22:44:13.504Z,21.40
2023-08-16T22:46:53.977Z,21.47
2023-08-16T22:49:34.193Z,21.60
2023-08-16T22:52:14.206Z,21.65
2023-08-16T22:54:54.439Z,21.60
2023-08-16T22:57:34.759Z,21.52
2023-08-16T23:00:15.224Z,21.48
2023-08-16T23:02:55.231Z,21.54
2023-08-16T23:05:35.765Z,21.42
2023-08-16T23:08:15.885Z,21.56
2023-08-16T23:10:56.401Z,21.77
2023-08-16T23:13:36.825Z,21.84
2023-08-16T23:16:17.354Z,21.79
2023-08-16T23:19:00.175Z,21.67
2023-08-16T23:21:40.430Z,21.47
2023-08-16T23:24:20.543Z,21.58
2023-08-16T23:27:00.559Z,21.57
2023-08-16T23:29:40.601Z,21.50
2023-08-16T23:32:20.817Z,21.19
2023-08-16T23:35:01.891Z,21.19
2023-08-16T23:37:42.234Z,21.10
2023-08-16T23:40:22.436Z,20.93
2023-08-16T23:43:02.668Z,21.10
2023-08-16T23:45:43.048Z,21.32
2023-08-16T23:48:23.231Z,21.41
2023-08-16T23:51:03.358Z,21.27
2023-08-16T23:53:43.579Z,21.28
2023-08-16T23:56:24.628Z,21.21
2023-08-16T23:59:05.400Z,21.15
